Terminal Aerodrome Forecast
Issued by NWS

Home | Current Version | Previous Version | Text Only | Print | Product List | Glossary On
Versions: 1 2 3 4 5 6 7 8 9 10 11 12 13 14 15 16 17 18 19 20 21 22 23 24 25 26 27 28 29 30 31 32 33 34 35 36 37 38 39 40 41 42 43 44 45 46 47 48
000
FTUS46 KEKA 171133
TAFACV
TAF
KACV 171133Z 1712/1812 00000KT P6SM FEW250
     FM171300 12006KT P6SM BKN250
     FM171800 15008KT P6SM VCSH OVC070 WS020/18030KT
     FM172300 15012G20KT P6SM VCSH OVC050 WS020/18030KT
     FM180300 14015G22KT 6SM -RA OVC050 WS020/18035KT
     FM180600 14020G28KT 6SM -RA OVC050=

USA.gov is the U.S. government's official web portal to all federal, state and local government web resources and services.